createdAt,value
2022-12-17T00:00:52.118Z,-0.39
2022-12-17T00:01:52.068Z,-0.37
2022-12-17T00:02:52.234Z,-0.39
2022-12-17T00:03:52.142Z,-0.44
2022-12-17T00:04:52.045Z,-0.50
2022-12-17T00:05:52.018Z,-0.52
2022-12-17T00:06:52.088Z,-0.52
2022-12-17T00:07:51.989Z,-0.51
2022-12-17T00:08:51.996Z,-0.50
2022-12-17T00:09:51.959Z,-0.48
2022-12-17T00:10:51.968Z,-0.47
2022-12-17T00:11:51.949Z,-0.45
2022-12-17T00:12:51.931Z,-0.42
2022-12-17T00:13:51.927Z,-0.44
2022-12-17T00:14:51.909Z,-0.47
2022-12-17T00:15:51.914Z,-0.51
2022-12-17T00:16:51.880Z,-0.52
2022-12-17T00:17:51.861Z,-0.50
2022-12-17T00:18:51.899Z,-0.50
2022-12-17T00:19:51.898Z,-0.54
2022-12-17T00:20:51.828Z,-0.55
2022-12-17T00:21:51.881Z,-0.59
2022-12-17T00:22:51.796Z,-0.55
2022-12-17T00:23:51.799Z,-0.60
2022-12-17T00:24:51.769Z,-0.59
2022-12-17T00:25:51.755Z,-0.59
2022-12-17T00:26:51.751Z,-0.54
2022-12-17T00:27:51.746Z,-0.55
2022-12-17T00:28:51.731Z,-0.57
2022-12-17T00:29:51.697Z,-0.54
2022-12-17T00:30:51.689Z,-0.54
2022-12-17T00:31:51.702Z,-0.51
2022-12-17T00:32:51.672Z,-0.54
2022-12-17T00:33:51.668Z,-0.59
2022-12-17T00:34:51.639Z,-0.57
2022-12-17T00:35:51.637Z,-0.55
2022-12-17T00:36:51.622Z,-0.59
2022-12-17T00:37:51.598Z,-0.57
2022-12-17T00:38:51.600Z,-0.59
2022-12-17T00:39:56.109Z,-0.59
2022-12-17T00:40:52.563Z,-0.57
2022-12-17T00:41:51.539Z,-0.54
2022-12-17T00:42:51.551Z,-0.55
2022-12-17T00:43:51.539Z,-0.57
2022-12-17T00:44:51.521Z,-0.59
2022-12-17T00:45:51.499Z,-0.55
2022-12-17T00:46:51.521Z,-0.54
2022-12-17T00:47:51.472Z,-0.55
2022-12-17T00:48:51.519Z,-0.52
2022-12-17T00:49:51.442Z,-0.52
2022-12-17T00:50:51.440Z,-0.51
2022-12-17T00:51:51.410Z,-0.48
2022-12-17T00:52:51.397Z,-0.52
2022-12-17T00:53:51.380Z,-0.51
2022-12-17T00:54:51.393Z,-0.51
2022-12-17T00:55:51.370Z,-0.52
2022-12-17T00:56:51.354Z,-0.54
2022-12-17T00:57:51.346Z,-0.50
2022-12-17T00:58:51.329Z,-0.60
2022-12-17T00:59:51.347Z,-0.63
2022-12-17T01:00:51.329Z,-0.59
2022-12-17T01:01:51.353Z,-0.59
2022-12-17T01:02:51.336Z,-0.63
2022-12-17T01:03:51.268Z,-0.60
2022-12-17T01:04:51.270Z,-0.62
2022-12-17T01:05:51.228Z,-0.62
2022-12-17T01:06:51.239Z,-0.57
2022-12-17T01:07:51.199Z,-0.52
2022-12-17T01:08:51.200Z,-0.54
2022-12-17T01:09:51.197Z,-0.54
2022-12-17T01:10:51.167Z,-0.55
2022-12-17T01:11:51.166Z,-0.55
2022-12-17T01:12:51.147Z,-0.59
2022-12-17T01:13:51.138Z,-0.59
2022-12-17T01:14:51.138Z,-0.62
2022-12-17T01:15:51.146Z,-0.60
2022-12-17T01:16:51.157Z,-0.63
2022-12-17T01:17:51.071Z,-0.66
2022-12-17T01:18:51.069Z,-0.65
2022-12-17T01:19:51.068Z,-0.65
2022-12-17T01:20:51.039Z,-0.69
2022-12-17T01:21:51.028Z,-0.73
2022-12-17T01:22:51.019Z,-0.70
2022-12-17T01:23:50.998Z,-0.70
2022-12-17T01:24:50.999Z,-0.68
2022-12-17T01:25:50.968Z,-0.69
2022-12-17T01:26:50.959Z,-0.70
2022-12-17T01:27:50.943Z,-0.70
2022-12-17T01:28:50.938Z,-0.69
2022-12-17T01:29:50.941Z,-0.66
2022-12-17T01:30:50.910Z,-0.73
2022-12-17T01:31:50.964Z,-0.75
2022-12-17T01:32:50.880Z,-0.77
2022-12-17T01:33:50.868Z,-0.70
2022-12-17T01:34:50.868Z,-0.68
2022-12-17T01:35:50.839Z,-0.72
2022-12-17T01:36:50.829Z,-0.70
2022-12-17T01:37:50.821Z,-0.68
2022-12-17T01:38:50.807Z,-0.65
2022-12-17T01:39:50.819Z,-0.63
2022-12-17T01:40:50.778Z,-0.65
2022-12-17T01:41:50.759Z,-0.69
2022-12-17T01:42:50.759Z,-0.69
2022-12-17T01:43:50.738Z,-0.69
2022-12-17T01:44:50.750Z,-0.69
2022-12-17T01:45:50.793Z,-0.69
2022-12-17T01:46:50.708Z,-0.72
2022-12-17T01:47:50.679Z,-0.70
2022-12-17T01:48:50.680Z,-0.68
2022-12-17T01:49:50.669Z,-0.66
2022-12-17T01:50:50.651Z,-0.60
2022-12-17T01:51:50.645Z,-0.59
2022-12-17T01:52:50.638Z,-0.59
2022-12-17T01:53:50.620Z,-0.59
2022-12-17T01:54:50.627Z,-0.60
2022-12-17T01:55:50.583Z,-0.60
2022-12-17T01:56:50.572Z,-0.57
2022-12-17T01:57:50.550Z,-0.57
2022-12-17T01:58:50.545Z,-0.60
2022-12-17T01:59:50.538Z,-0.59
2022-12-17T02:00:50.580Z,-0.55
2022-12-17T02:01:50.639Z,-0.59
2022-12-17T02:02:50.676Z,-0.52
2022-12-17T02:03:50.468Z,-0.54
2022-12-17T02:04:50.497Z,-0.54
2022-12-17T02:05:50.446Z,-0.55
2022-12-17T02:06:50.436Z,-0.55
2022-12-17T02:07:50.506Z,-0.60
2022-12-17T02:08:50.428Z,-0.57
2022-12-17T02:09:50.408Z,-0.54
2022-12-17T02:10:50.385Z,-0.54
2022-12-17T02:11:50.368Z,-0.54
2022-12-17T02:12:50.368Z,-0.55
2022-12-17T02:13:50.339Z,-0.57
2022-12-17T02:14:50.347Z,-0.57
2022-12-17T02:15:50.316Z,-0.60
2022-12-17T02:16:50.341Z,-0.60
2022-12-17T02:17:50.289Z,-0.60
2022-12-17T02:18:50.278Z,-0.57
2022-12-17T02:19:50.302Z,-0.59
2022-12-17T02:20:50.248Z,-0.55
2022-12-17T02:21:50.239Z,-0.57
2022-12-17T02:22:50.227Z,-0.57
2022-12-17T02:23:50.217Z,-0.55
2022-12-17T02:24:50.208Z,-0.54
2022-12-17T02:25:50.201Z,-0.57
2022-12-17T02:26:50.180Z,-0.52
2022-12-17T02:27:50.158Z,-0.54
2022-12-17T02:28:50.154Z,-0.54
2022-12-17T02:29:50.130Z,-0.57
2022-12-17T02:30:50.140Z,-0.59
2022-12-17T02:31:50.194Z,-0.57
2022-12-17T02:32:50.120Z,-0.57
2022-12-17T02:33:50.087Z,-0.63
2022-12-17T02:34:50.074Z,-0.63
2022-12-17T02:35:50.084Z,-0.65
2022-12-17T02:36:50.053Z,-0.65
2022-12-17T02:37:50.032Z,-0.66
2022-12-17T02:38:50.048Z,-0.66
2022-12-17T02:39:50.006Z,-0.69
2022-12-17T02:40:50.008Z,-0.66
2022-12-17T02:41:49.977Z,-0.65
2022-12-17T02:42:49.976Z,-0.69
2022-12-17T02:43:49.947Z,-0.70
2022-12-17T02:44:49.951Z,-0.72
2022-12-17T02:45:49.992Z,-0.72
2022-12-17T02:46:49.918Z,-0.75
2022-12-17T02:47:49.921Z,-0.73
2022-12-17T02:48:49.886Z,-0.72
2022-12-17T02:49:49.869Z,-0.75
2022-12-17T02:50:49.900Z,-0.78
2022-12-17T02:51:49.867Z,-0.83
2022-12-17T02:52:49.838Z,-0.89
2022-12-17T02:53:49.817Z,-0.91
2022-12-17T02:54:49.807Z,-0.89
2022-12-17T02:55:49.811Z,-0.84
2022-12-17T02:56:49.780Z,-0.84
2022-12-17T02:57:53.838Z,-0.87
2022-12-17T02:58:49.756Z,-0.87
2022-12-17T02:59:49.737Z,-0.86
2022-12-17T03:00:49.798Z,-0.89
2022-12-17T03:01:49.837Z,-0.91
2022-12-17T03:02:49.811Z,-0.92
2022-12-17T03:03:50.513Z,-0.87
2022-12-17T03:04:49.676Z,-0.86
2022-12-17T03:05:49.690Z,-0.84
2022-12-17T03:06:49.656Z,-0.87
2022-12-17T03:07:49.634Z,-0.89
2022-12-17T03:08:50.579Z,-0.87
2022-12-17T03:09:49.606Z,-0.86
2022-12-17T03:10:49.618Z,-0.83
2022-12-17T03:11:49.596Z,-0.81
2022-12-17T03:12:49.576Z,-0.77
2022-12-17T03:13:49.562Z,-0.75
2022-12-17T03:14:49.555Z,-0.80
2022-12-17T03:15:49.546Z,-0.81
2022-12-17T03:16:49.577Z,-0.80
2022-12-17T03:17:49.535Z,-0.81
2022-12-17T03:18:49.496Z,-0.83
2022-12-17T03:19:49.478Z,-0.87
2022-12-17T03:20:49.465Z,-0.89
2022-12-17T03:21:49.476Z,-0.91
2022-12-17T03:22:49.446Z,-0.92
2022-12-17T03:23:49.428Z,-0.94
2022-12-17T03:24:49.425Z,-0.95
2022-12-17T03:25:49.408Z,-0.95
2022-12-17T03:26:49.408Z,-0.89
2022-12-17T03:27:49.373Z,-0.91
2022-12-17T03:28:49.364Z,-0.95
2022-12-17T03:29:49.347Z,-0.94
2022-12-17T03:30:49.536Z,-0.92
2022-12-17T03:31:49.315Z,-0.86
2022-12-17T03:32:49.315Z,-0.87
2022-12-17T03:33:49.314Z,-0.84
2022-12-17T03:34:49.289Z,-0.81
2022-12-17T03:35:49.307Z,-0.83
2022-12-17T03:36:49.255Z,-0.81
2022-12-17T03:37:49.239Z,-0.83
2022-12-17T03:38:49.236Z,-0.84
2022-12-17T03:39:49.215Z,-0.83
2022-12-17T03:40:49.240Z,-0.84
2022-12-17T03:41:49.187Z,-0.83
2022-12-17T03:42:49.178Z,-0.86
2022-12-17T03:43:49.167Z,-0.87
2022-12-17T03:44:49.178Z,-0.83
2022-12-17T03:45:49.209Z,-0.83
2022-12-17T03:46:49.134Z,-0.84
2022-12-17T03:47:49.116Z,-0.81
2022-12-17T03:48:49.100Z,-0.78
2022-12-17T03:49:49.086Z,-0.81
2022-12-17T03:50:49.086Z,-0.81
2022-12-17T03:51:49.059Z,-0.83
2022-12-17T03:52:49.049Z,-0.83
2022-12-17T03:53:49.027Z,-0.84
2022-12-17T03:54:49.025Z,-0.87
2022-12-17T03:55:49.029Z,-0.86
2022-12-17T03:56:48.995Z,-0.84
2022-12-17T03:57:48.985Z,-0.84
2022-12-17T03:58:48.973Z,-0.86
2022-12-17T03:59:48.955Z,-0.86
2022-12-17T04:00:48.979Z,-0.84
2022-12-17T04:01:49.011Z,-0.81
2022-12-17T04:02:49.127Z,-0.86
2022-12-17T04:03:48.975Z,-0.84
2022-12-17T04:04:48.893Z,-0.89
2022-12-17T04:05:48.900Z,-0.87
2022-12-17T04:06:48.865Z,-0.86
2022-12-17T04:07:48.847Z,-0.83
2022-12-17T04:08:48.836Z,-0.84
2022-12-17T04:09:48.827Z,-0.80
2022-12-17T04:10:48.830Z,-0.77
2022-12-17T04:11:48.807Z,-0.75
2022-12-17T04:12:48.781Z,-0.78
2022-12-17T04:13:49.114Z,-0.81
2022-12-17T04:14:48.766Z,-0.80
2022-12-17T04:15:48.803Z,-0.78
2022-12-17T04:16:48.737Z,-0.77
2022-12-17T04:17:48.717Z,-0.77
2022-12-17T04:18:48.720Z,-0.72
2022-12-17T04:19:48.694Z,-0.68
2022-12-17T04:20:48.701Z,-0.73
2022-12-17T04:21:48.678Z,-0.73
2022-12-17T04:22:48.652Z,-0.72
2022-12-17T04:23:48.647Z,-0.69
2022-12-17T04:24:48.636Z,-0.73
2022-12-17T04:25:48.637Z,-0.84
2022-12-17T04:26:48.606Z,-0.86
2022-12-17T04:27:48.615Z,-0.97
2022-12-17T04:28:48.574Z,-1.03
2022-12-17T04:29:48.565Z,-1.02
2022-12-17T04:30:48.659Z,-0.99
2022-12-17T04:31:48.616Z,-0.95
2022-12-17T04:32:48.535Z,-0.97
2022-12-17T04:33:48.514Z,-0.91
2022-12-17T04:34:48.504Z,-0.94
2022-12-17T04:35:48.494Z,-0.91
2022-12-17T04:36:48.503Z,-0.89
2022-12-17T04:37:48.464Z,-0.83
2022-12-17T04:38:48.444Z,-0.83
2022-12-17T04:39:48.435Z,-0.86
2022-12-17T04:40:48.416Z,-0.86
2022-12-17T04:41:48.426Z,-0.81
2022-12-17T04:42:48.401Z,-0.80
2022-12-17T04:43:48.392Z,-0.78
2022-12-17T04:44:48.366Z,-0.77
2022-12-17T04:45:48.395Z,-0.78
2022-12-17T04:46:48.433Z,-0.83
2022-12-17T04:47:48.333Z,-0.83
2022-12-17T04:48:48.314Z,-0.81
2022-12-17T04:49:48.312Z,-0.83
2022-12-17T04:50:48.293Z,-0.78
2022-12-17T04:51:48.300Z,-0.78
2022-12-17T04:52:48.265Z,-0.73
2022-12-17T04:53:48.278Z,-0.73
2022-12-17T04:54:48.234Z,-0.72
2022-12-17T04:55:48.231Z,-0.65
2022-12-17T04:56:48.255Z,-0.66
2022-12-17T04:57:48.214Z,-0.66
2022-12-17T04:58:48.184Z,-0.68
2022-12-17T04:59:48.195Z,-0.69
2022-12-17T05:00:48.191Z,-0.72
2022-12-17T05:01:48.253Z,-0.70
2022-12-17T05:02:48.269Z,-0.66
2022-12-17T05:03:48.226Z,-0.66
2022-12-17T05:04:48.109Z,-0.66
2022-12-17T05:05:48.101Z,-0.65
2022-12-17T05:06:48.097Z,-0.63
2022-12-17T05:07:48.098Z,-0.63
2022-12-17T05:08:48.054Z,-0.60
2022-12-17T05:09:48.064Z,-0.62
2022-12-17T05:10:48.031Z,-0.60
2022-12-17T05:11:48.043Z,-0.62
2022-12-17T05:12:48.005Z,-0.62
2022-12-17T05:13:47.992Z,-0.57
2022-12-17T05:14:47.965Z,-0.65
2022-12-17T05:15:52.982Z,-0.66
2022-12-17T05:16:48.981Z,-0.69
2022-12-17T05:17:47.942Z,-0.68
2022-12-17T05:18:47.924Z,-0.70
2022-12-17T05:19:47.914Z,-0.68
2022-12-17T05:20:47.894Z,-0.70
2022-12-17T05:21:47.902Z,-0.70
2022-12-17T05:22:47.876Z,-0.73
2022-12-17T05:23:47.863Z,-0.73
2022-12-17T05:24:47.845Z,-0.72
2022-12-17T05:25:47.843Z,-0.69
2022-12-17T05:26:47.858Z,-0.69
2022-12-17T05:27:47.835Z,-0.69
2022-12-17T05:28:47.793Z,-0.70
2022-12-17T05:29:47.783Z,-0.70
2022-12-17T05:30:47.800Z,-0.72
2022-12-17T05:31:47.785Z,-0.75
2022-12-17T05:32:47.742Z,-0.75
2022-12-17T05:33:47.735Z,-0.73
2022-12-17T05:34:47.713Z,-0.75
2022-12-17T05:35:47.717Z,-0.73
2022-12-17T05:36:47.714Z,-0.73
2022-12-17T05:37:47.700Z,-0.80
2022-12-17T05:38:47.664Z,-0.81
2022-12-17T05:39:47.659Z,-0.89
2022-12-17T05:40:47.643Z,-0.84
2022-12-17T05:41:47.654Z,-0.84
2022-12-17T05:42:47.617Z,-0.78
2022-12-17T05:43:47.604Z,-0.78
2022-12-17T05:44:47.583Z,-0.78
2022-12-17T05:45:47.575Z,-0.80
2022-12-17T05:46:47.610Z,-0.83
2022-12-17T05:47:47.562Z,-0.80
2022-12-17T05:48:47.534Z,-0.81
2022-12-17T05:49:47.545Z,-0.83
2022-12-17T05:50:47.516Z,-0.87
2022-12-17T05:51:47.514Z,-0.99
2022-12-17T05:52:47.482Z,-1.00
2022-12-17T05:53:47.470Z,-0.99
2022-12-17T05:54:47.455Z,-0.97
2022-12-17T05:55:47.458Z,-0.95
2022-12-17T05:56:47.464Z,-0.91
2022-12-17T05:57:51.726Z,-0.84
2022-12-17T05:58:48.403Z,-0.87
2022-12-17T05:59:47.395Z,-0.84
2022-12-17T06:00:47.375Z,-0.84
2022-12-17T06:01:47.438Z,-0.84
2022-12-17T06:02:47.461Z,-0.87
2022-12-17T06:03:47.453Z,-0.83
2022-12-17T06:04:47.324Z,-0.80
2022-12-17T06:05:47.333Z,-0.81
2022-12-17T06:06:47.313Z,-0.83
2022-12-17T06:07:47.283Z,-0.83
2022-12-17T06:08:47.272Z,-0.83
2022-12-17T06:09:47.263Z,-0.81
2022-12-17T06:10:47.246Z,-0.80
2022-12-17T06:11:47.254Z,-0.81
2022-12-17T06:12:47.232Z,-0.80
2022-12-17T06:13:47.238Z,-0.75
2022-12-17T06:14:47.194Z,-0.75
2022-12-17T06:15:47.201Z,-0.81
2022-12-17T06:16:47.193Z,-0.83
2022-12-17T06:17:47.156Z,-0.83
2022-12-17T06:18:47.142Z,-0.81
2022-12-17T06:19:47.133Z,-0.81
2022-12-17T06:20:47.133Z,-0.83
2022-12-17T06:21:47.134Z,-0.84
2022-12-17T06:22:47.161Z,-0.86
2022-12-17T06:23:47.083Z,-0.87
2022-12-17T06:24:47.066Z,-0.87
2022-12-17T06:25:47.086Z,-0.91
2022-12-17T06:26:47.050Z,-0.91
2022-12-17T06:27:47.030Z,-0.95
2022-12-17T06:28:47.013Z,-0.95
2022-12-17T06:29:47.012Z,-0.95
2022-12-17T06:30:47.014Z,-0.95
2022-12-17T06:31:47.125Z,-0.95
2022-12-17T06:32:46.963Z,-0.99
2022-12-17T06:33:46.950Z,-0.99
2022-12-17T06:34:46.939Z,-1.06
2022-12-17T06:35:46.924Z,-1.05
2022-12-17T06:36:46.977Z,-1.02
2022-12-17T06:37:46.902Z,-1.03
2022-12-17T06:38:46.917Z,-1.02
2022-12-17T06:39:46.884Z,-1.03
2022-12-17T06:40:46.856Z,-1.02
2022-12-17T06:41:46.866Z,-0.95
2022-12-17T06:42:46.845Z,-0.99
2022-12-17T06:43:46.835Z,-1.02
2022-12-17T06:44:46.826Z,-0.97
2022-12-17T06:45:46.808Z,-1.03
2022-12-17T06:46:46.845Z,-1.05
2022-12-17T06:47:46.780Z,-1.03
2022-12-17T06:48:46.782Z,-1.06
2022-12-17T06:49:46.741Z,-1.05
2022-12-17T06:50:46.784Z,-1.06
2022-12-17T06:51:46.715Z,-1.07
2022-12-17T06:52:46.705Z,-1.07
2022-12-17T06:53:46.696Z,-1.13
2022-12-17T06:54:46.681Z,-1.18
2022-12-17T06:55:46.695Z,-1.15
2022-12-17T06:56:46.673Z,-1.15
2022-12-17T06:57:50.343Z,-1.13
2022-12-17T06:58:46.621Z,-1.13
2022-12-17T06:59:46.616Z,-1.17
2022-12-17T07:00:46.810Z,-1.20
2022-12-17T07:01:46.724Z,-1.23
2022-12-17T07:02:46.722Z,-1.24
2022-12-17T07:03:46.572Z,-1.23
2022-12-17T07:04:46.571Z,-1.21
2022-12-17T07:05:46.531Z,-1.20
2022-12-17T07:06:46.521Z,-1.20
2022-12-17T07:07:46.520Z,-1.24
2022-12-17T07:08:46.495Z,-1.25
2022-12-17T07:09:46.534Z,-1.28
2022-12-17T07:10:46.481Z,-1.31
2022-12-17T07:11:46.529Z,-1.33
2022-12-17T07:12:46.445Z,-1.35
2022-12-17T07:13:46.437Z,-1.28
2022-12-17T07:14:46.452Z,-1.30
2022-12-17T07:15:46.402Z,-1.31
2022-12-17T07:16:46.470Z,-1.38
2022-12-17T07:17:46.379Z,-1.38
2022-12-17T07:18:46.369Z,-1.39
2022-12-17T07:19:46.362Z,-1.38
2022-12-17T07:20:46.362Z,-1.43
2022-12-17T07:21:46.337Z,-1.43
2022-12-17T07:22:46.311Z,-1.49
2022-12-17T07:23:46.312Z,-1.53
2022-12-17T07:24:46.282Z,-1.51
2022-12-17T07:25:46.565Z,-1.54
2022-12-17T07:26:46.260Z,-1.54
2022-12-17T07:27:46.250Z,-1.53
2022-12-17T07:28:46.247Z,-1.54
2022-12-17T07:29:46.236Z,-1.49
2022-12-17T07:30:49.172Z,-1.49
2022-12-17T07:31:47.256Z,-1.48
2022-12-17T07:32:46.180Z,-1.49
2022-12-17T07:33:46.171Z,-1.43
2022-12-17T07:34:46.155Z,-1.43
2022-12-17T07:35:46.176Z,-1.51
2022-12-17T07:36:46.142Z,-1.54
2022-12-17T07:37:46.127Z,-1.53
2022-12-17T07:38:46.130Z,-1.54
2022-12-17T07:39:46.107Z,-1.60
2022-12-17T07:40:46.091Z,-1.66
2022-12-17T07:41:46.075Z,-1.69
2022-12-17T07:42:46.063Z,-1.70
2022-12-17T07:43:51.284Z,-1.67
2022-12-17T07:44:47.028Z,-1.67
2022-12-17T07:45:46.102Z,-1.64
2022-12-17T07:46:46.015Z,-1.64
2022-12-17T07:47:45.993Z,-1.70
2022-12-17T07:48:45.983Z,-1.77
2022-12-17T07:49:45.973Z,-1.72
2022-12-17T07:50:45.961Z,-1.70
2022-12-17T07:51:45.941Z,-1.70
2022-12-17T07:52:45.938Z,-1.72
2022-12-17T07:53:45.920Z,-1.78
2022-12-17T07:54:45.906Z,-1.78
2022-12-17T07:55:45.914Z,-1.78
2022-12-17T07:56:45.871Z,-1.78
2022-12-17T07:57:45.878Z,-1.80
2022-12-17T07:58:45.857Z,-1.87
2022-12-17T07:59:45.862Z,-1.87
2022-12-17T08:00:49.231Z,-1.87
2022-12-17T08:01:45.960Z,-1.87
2022-12-17T08:02:45.965Z,-1.85
2022-12-17T08:03:45.897Z,-1.85
2022-12-17T08:04:45.781Z,-1.81
2022-12-17T08:05:45.782Z,-1.90
2022-12-17T08:06:45.749Z,-1.95
2022-12-17T08:07:45.744Z,-1.96
2022-12-17T08:08:45.722Z,-1.98
2022-12-17T08:09:45.723Z,-2.00
2022-12-17T08:10:45.721Z,-2.00
2022-12-17T08:11:45.700Z,-2.00
2022-12-17T08:12:45.681Z,-1.99
2022-12-17T08:13:45.663Z,-2.02
2022-12-17T08:14:45.651Z,-2.03
2022-12-17T08:15:45.668Z,-2.02
2022-12-17T08:16:45.706Z,-2.02
2022-12-17T08:17:45.611Z,-2.02
2022-12-17T08:18:45.602Z,-2.02
2022-12-17T08:19:45.593Z,-2.02
2022-12-17T08:20:45.602Z,-1.99
2022-12-17T08:21:45.560Z,-2.03
2022-12-17T08:22:45.552Z,-2.03
2022-12-17T08:23:45.540Z,-2.14
2022-12-17T08:24:45.533Z,-2.16
2022-12-17T08:25:45.544Z,-2.20
2022-12-17T08:26:48.065Z,-2.16
2022-12-17T08:27:45.482Z,-2.20
2022-12-17T08:28:52.640Z,-2.24
2022-12-17T08:29:46.466Z,-2.24
2022-12-17T08:30:45.505Z,-2.24
2022-12-17T08:31:45.442Z,-2.32
2022-12-17T08:32:45.428Z,-2.29
2022-12-17T08:33:45.401Z,-2.28
2022-12-17T08:34:45.401Z,-2.35
2022-12-17T08:35:45.409Z,-2.39
2022-12-17T08:36:45.381Z,-2.48
2022-12-17T08:37:45.353Z,-2.47
2022-12-17T08:38:45.351Z,-2.50
2022-12-17T08:39:45.330Z,-2.53
2022-12-17T08:40:45.341Z,-2.54
2022-12-17T08:41:48.584Z,-2.54
2022-12-17T08:42:46.304Z,-2.56
2022-12-17T08:43:45.279Z,-2.60
2022-12-17T08:44:45.270Z,-2.63
2022-12-17T08:45:45.353Z,-2.61
2022-12-17T08:46:45.252Z,-2.66
2022-12-17T08:47:45.234Z,-2.61
2022-12-17T08:48:45.220Z,-2.54
2022-12-17T08:49:45.204Z,-2.51
2022-12-17T08:50:45.209Z,-2.48
2022-12-17T08:51:45.181Z,-2.48
2022-12-17T08:52:45.171Z,-2.43
2022-12-17T08:53:45.150Z,-2.42
2022-12-17T08:54:45.150Z,-2.43
2022-12-17T08:55:45.140Z,-2.47
2022-12-17T08:56:45.120Z,-2.48
2022-12-17T08:57:45.100Z,-2.45
2022-12-17T08:58:45.106Z,-2.45
2022-12-17T08:59:45.080Z,-2.45
2022-12-17T09:00:45.090Z,-2.54
2022-12-17T09:01:45.164Z,-2.53
2022-12-17T09:02:45.155Z,-2.54
2022-12-17T09:03:45.131Z,-2.61
2022-12-17T09:04:45.029Z,-2.66
2022-12-17T09:05:45.001Z,-2.74
2022-12-17T09:06:44.989Z,-2.71
2022-12-17T09:07:44.980Z,-2.75
2022-12-17T09:08:44.967Z,-2.76
2022-12-17T09:09:44.974Z,-2.89
2022-12-17T09:10:44.951Z,-2.92
2022-12-17T09:11:44.921Z,-2.93
2022-12-17T09:12:44.919Z,-2.94
2022-12-17T09:13:44.899Z,-2.93
2022-12-17T09:14:44.888Z,-2.93
2022-12-17T09:15:44.896Z,-2.90
2022-12-17T09:16:44.939Z,-2.96
2022-12-17T09:17:44.849Z,-2.96
2022-12-17T09:18:44.864Z,-2.92
2022-12-17T09:19:44.839Z,-2.97
2022-12-17T09:20:44.818Z,-3.00
2022-12-17T09:21:44.795Z,-3.00
2022-12-17T09:22:44.797Z,-3.00
2022-12-17T09:23:44.778Z,-3.04
2022-12-17T09:24:44.778Z,-3.10
2022-12-17T09:25:44.740Z,-3.11
2022-12-17T09:26:44.729Z,-3.14
2022-12-17T09:27:44.730Z,-3.14
2022-12-17T09:28:44.710Z,-3.23
2022-12-17T09:29:44.710Z,-3.23
2022-12-17T09:30:44.721Z,-3.25
2022-12-17T09:31:44.692Z,-3.28
2022-12-17T09:32:44.657Z,-3.23
2022-12-17T09:33:44.647Z,-3.17
2022-12-17T09:34:44.651Z,-3.18
2022-12-17T09:35:44.614Z,-3.15
2022-12-17T09:36:50.917Z,-3.17
2022-12-17T09:37:45.587Z,-3.25
2022-12-17T09:38:44.592Z,-3.26
2022-12-17T09:39:44.578Z,-3.25
2022-12-17T09:40:44.558Z,-3.18
2022-12-17T09:41:44.541Z,-3.17
2022-12-17T09:42:50.106Z,-3.17
2022-12-17T09:43:45.518Z,-3.17
2022-12-17T09:44:44.526Z,-3.15
2022-12-17T09:45:44.521Z,-3.11
2022-12-17T09:46:44.489Z,-3.13
2022-12-17T09:47:44.459Z,-3.11
2022-12-17T09:48:44.468Z,-3.14
2022-12-17T09:49:44.437Z,-3.15
2022-12-17T09:50:44.427Z,-3.20
2022-12-17T09:51:44.408Z,-3.18
2022-12-17T09:52:44.414Z,-3.17
2022-12-17T09:53:44.408Z,-3.17
2022-12-17T09:54:44.376Z,-3.20
2022-12-17T09:55:44.358Z,-3.25
2022-12-17T09:56:44.350Z,-3.28
2022-12-17T09:57:44.337Z,-3.29
2022-12-17T09:58:44.347Z,-3.25
2022-12-17T09:59:44.308Z,-3.22
2022-12-17T10:00:44.297Z,-3.18
2022-12-17T10:01:44.362Z,-3.20
2022-12-17T10:02:44.416Z,-3.18
2022-12-17T10:03:44.393Z,-3.26
2022-12-17T10:04:44.257Z,-3.20
2022-12-17T10:05:44.238Z,-3.15
2022-12-17T10:06:44.246Z,-3.17
2022-12-17T10:07:44.207Z,-3.23
2022-12-17T10:08:44.217Z,-3.18
2022-12-17T10:09:44.191Z,-3.26
2022-12-17T10:10:44.178Z,-3.32
2022-12-17T10:11:44.157Z,-3.38
2022-12-17T10:12:44.149Z,-3.35
2022-12-17T10:13:44.143Z,-3.36
2022-12-17T10:14:44.137Z,-3.35
2022-12-17T10:15:44.139Z,-3.32
2022-12-17T10:16:44.099Z,-3.26
2022-12-17T10:17:44.076Z,-3.18
2022-12-17T10:18:44.100Z,-3.14
2022-12-17T10:19:44.059Z,-3.15
2022-12-17T10:20:44.048Z,-3.13
2022-12-17T10:21:44.025Z,-3.08
2022-12-17T10:22:44.022Z,-3.07
2022-12-17T10:23:44.023Z,-3.10
2022-12-17T10:24:43.994Z,-3.07
2022-12-17T10:25:53.724Z,-3.10
2022-12-17T10:26:44.673Z,-3.13
2022-12-17T10:27:43.945Z,-3.15
2022-12-17T10:28:43.955Z,-3.13
2022-12-17T10:29:47.728Z,-3.20
2022-12-17T10:30:43.941Z,-3.23
2022-12-17T10:31:43.903Z,-3.17
2022-12-17T10:32:43.890Z,-3.18
2022-12-17T10:33:43.894Z,-3.22
2022-12-17T10:34:43.871Z,-3.23
2022-12-17T10:35:43.843Z,-3.25
2022-12-17T10:36:43.845Z,-3.29
2022-12-17T10:37:43.823Z,-3.31
2022-12-17T10:38:43.826Z,-3.35
2022-12-17T10:39:43.793Z,-3.33
2022-12-17T10:40:43.784Z,-3.32
2022-12-17T10:41:43.773Z,-3.26
2022-12-17T10:42:43.761Z,-3.22
2022-12-17T10:43:43.762Z,-3.20
2022-12-17T10:44:43.738Z,-3.15
2022-12-17T10:45:43.728Z,-3.25
2022-12-17T10:46:43.772Z,-3.23
2022-12-17T10:47:43.695Z,-3.25
2022-12-17T10:48:43.701Z,-3.22
2022-12-17T10:49:43.683Z,-3.18
2022-12-17T10:50:43.659Z,-3.13
2022-12-17T10:51:43.659Z,-3.04
2022-12-17T10:52:43.632Z,-2.96
2022-12-17T10:53:43.643Z,-2.96
2022-12-17T10:54:48.772Z,-2.97
2022-12-17T10:55:44.592Z,-3.00
2022-12-17T10:56:43.602Z,-3.04
2022-12-17T10:57:43.561Z,-3.07
2022-12-17T10:58:43.571Z,-3.13
2022-12-17T10:59:43.542Z,-3.08
2022-12-17T11:00:49.416Z,-3.10
2022-12-17T11:01:44.613Z,-3.10
2022-12-17T11:02:43.747Z,-3.10
2022-12-17T11:03:43.547Z,-3.08
2022-12-17T11:04:43.481Z,-3.10
2022-12-17T11:05:43.463Z,-3.04
2022-12-17T11:06:43.465Z,-3.02
2022-12-17T11:07:43.433Z,-2.99
2022-12-17T11:08:43.431Z,-3.00
2022-12-17T11:09:43.440Z,-2.99
2022-12-17T11:10:43.411Z,-2.99
2022-12-17T11:11:43.390Z,-3.05
2022-12-17T11:12:43.381Z,-3.11
2022-12-17T11:13:43.380Z,-3.10
2022-12-17T11:14:43.350Z,-3.07
2022-12-17T11:15:43.365Z,-3.04
2022-12-17T11:16:43.321Z,-3.04
2022-12-17T11:17:43.311Z,-3.02
2022-12-17T11:18:43.320Z,-3.00
2022-12-17T11:19:43.285Z,-3.00
2022-12-17T11:20:43.279Z,-2.99
2022-12-17T11:21:43.251Z,-3.00
2022-12-17T11:22:43.254Z,-3.08
2022-12-17T11:23:43.261Z,-3.07
2022-12-17T11:24:43.232Z,-3.02
2022-12-17T11:25:43.211Z,-3.04
2022-12-17T11:26:43.198Z,-2.97
2022-12-17T11:27:43.180Z,-2.94
2022-12-17T11:28:43.195Z,-2.96
2022-12-17T11:29:43.160Z,-2.93
2022-12-17T11:30:43.142Z,-2.90
2022-12-17T11:31:43.166Z,-2.93
2022-12-17T11:32:43.128Z,-2.94
2022-12-17T11:33:43.121Z,-2.93
2022-12-17T11:34:43.100Z,-2.87
2022-12-17T11:35:43.078Z,-2.85
2022-12-17T11:36:43.072Z,-2.76
2022-12-17T11:37:43.050Z,-2.82
2022-12-17T11:38:43.060Z,-2.87
2022-12-17T11:39:43.041Z,-2.92
2022-12-17T11:40:43.019Z,-2.90
2022-12-17T11:41:43.010Z,-2.86
2022-12-17T11:42:42.990Z,-2.82
2022-12-17T11:43:42.997Z,-2.81
2022-12-17T11:44:42.970Z,-2.76
2022-12-17T11:45:42.950Z,-2.78
2022-12-17T11:46:43.014Z,-2.81
2022-12-17T11:47:42.932Z,-2.72
2022-12-17T11:48:42.931Z,-2.72
2022-12-17T11:49:42.900Z,-2.76
2022-12-17T11:50:42.908Z,-2.78
2022-12-17T11:51:42.880Z,-2.79
2022-12-17T11:52:42.888Z,-2.76
2022-12-17T11:53:42.849Z,-2.72
2022-12-17T11:54:42.841Z,-2.76
2022-12-17T11:55:42.819Z,-2.71
2022-12-17T11:56:42.810Z,-2.63
2022-12-17T11:57:42.801Z,-2.63
2022-12-17T11:58:42.802Z,-2.64
2022-12-17T11:59:45.635Z,-2.64
2022-12-17T12:00:43.761Z,-2.72
2022-12-17T12:01:42.800Z,-2.68
2022-12-17T12:02:42.851Z,-2.69
2022-12-17T12:03:42.768Z,-2.74
2022-12-17T12:04:42.759Z,-2.71
2022-12-17T12:05:42.689Z,-2.72
2022-12-17T12:06:42.689Z,-2.74
2022-12-17T12:07:42.688Z,-2.74
2022-12-17T12:08:42.658Z,-2.74
2022-12-17T12:09:42.650Z,-2.72
2022-12-17T12:10:42.630Z,-2.71
2022-12-17T12:11:42.623Z,-2.82
2022-12-17T12:12:42.619Z,-2.82
2022-12-17T12:13:42.598Z,-2.82
2022-12-17T12:14:42.578Z,-2.81
2022-12-17T12:15:42.716Z,-2.85
2022-12-17T12:16:44.081Z,-2.82
2022-12-17T12:17:42.549Z,-2.81
2022-12-17T12:18:42.550Z,-2.76
2022-12-17T12:19:42.509Z,-2.86
2022-12-17T12:20:42.513Z,-2.85
2022-12-17T12:21:42.491Z,-2.82
2022-12-17T12:22:42.498Z,-2.75
2022-12-17T12:23:42.458Z,-2.75
2022-12-17T12:24:42.459Z,-2.76
2022-12-17T12:25:42.445Z,-2.75
2022-12-17T12:26:42.440Z,-2.68
2022-12-17T12:27:43.138Z,-2.68
2022-12-17T12:28:42.399Z,-2.69
2022-12-17T12:29:42.398Z,-2.68
2022-12-17T12:30:42.386Z,-2.61
2022-12-17T12:31:42.427Z,-2.57
2022-12-17T12:32:42.361Z,-2.51
2022-12-17T12:33:42.338Z,-2.54
2022-12-17T12:34:42.330Z,-2.61
2022-12-17T12:35:42.317Z,-2.64
2022-12-17T12:36:42.297Z,-2.64
2022-12-17T12:37:42.317Z,-2.66
2022-12-17T12:38:46.156Z,-2.60
2022-12-17T12:39:42.262Z,-2.54
2022-12-17T12:40:42.248Z,-2.54
2022-12-17T12:41:42.236Z,-2.57
2022-12-17T12:42:42.247Z,-2.58
2022-12-17T12:43:42.217Z,-2.57
2022-12-17T12:44:45.788Z,-2.58
2022-12-17T12:45:43.237Z,-2.56
2022-12-17T12:46:42.186Z,-2.54
2022-12-17T12:47:42.177Z,-2.58
2022-12-17T12:48:42.140Z,-2.60
2022-12-17T12:49:42.138Z,-2.60
2022-12-17T12:50:42.123Z,-2.64
2022-12-17T12:51:42.128Z,-2.66
2022-12-17T12:52:42.097Z,-2.64